sensor_id;sensor_type;location;lat;lon;timestamp;temperature;humidity
16114;DHT22;8161;-33.910;151.156;2023-03-31T00:01:06;22.90;99.90
16114;DHT22;8161;-33.910;151.156;2023-03-31T00:03:33;23.00;99.90
16114;DHT22;8161;-33.910;151.156;2023-03-31T00:06:04;22.90;99.90
16114;DHT22;8161;-33.910;151.156;2023-03-31T00:08:32;22.90;99.90
16114;DHT22;8161;-33.910;151.156;2023-03-31T00:11:04;23.00;99.90
16114;DHT22;8161;-33.910;151.156;2023-03-31T00:13:33;23.20;99.90
16114;DHT22;8161;-33.910;151.156;2023-03-31T00:16:06;23.20;99.90
16114;DHT22;8161;-33.910;151.156;2023-03-31T00:18:34;23.30;99.90
16114;DHT22;8161;-33.910;151.156;2023-03-31T00:21:11;23.50;99.90
16114;DHT22;8161;-33.910;151.156;2023-03-31T00:23:53;23.60;99.90
16114;DHT22;8161;-33.910;151.156;2023-03-31T00:26:21;23.60;99.90
16114;DHT22;8161;-33.910;151.156;2023-03-31T00:28:49;23.70;99.90
16114;DHT22;8161;-33.910;151.156;2023-03-31T00:31:17;23.90;99.90
16114;DHT22;8161;-33.910;151.156;2023-03-31T00:33:44;24.00;99.90
16114;DHT22;8161;-33.910;151.156;2023-03-31T00:36:11;23.90;99.90
16114;DHT22;8161;-33.910;151.156;2023-03-31T00:38:38;24.00;99.90
16114;DHT22;8161;-33.910;151.156;2023-03-31T00:41:06;24.20;99.90
16114;DHT22;8161;-33.910;151.156;2023-03-31T00:43:36;24.30;99.90
16114;DHT22;8161;-33.910;151.156;2023-03-31T00:48:51;24.20;99.90
16114;DHT22;8161;-33.910;151.156;2023-03-31T00:51:21;24.50;99.90
16114;DHT22;8161;-33.910;151.156;2023-03-31T00:53:55;24.20;99.90
16114;DHT22;8161;-33.910;151.156;2023-03-31T00:56:27;24.30;99.90
16114;DHT22;8161;-33.910;151.156;2023-03-31T00:58:57;24.70;99.90
16114;DHT22;8161;-33.910;151.156;2023-03-31T01:01:27;24.90;99.90
16114;DHT22;8161;-33.910;151.156;2023-03-31T01:03:56;25.00;99.90
16114;DHT22;8161;-33.910;151.156;2023-03-31T01:06:24;25.10;99.90
16114;DHT22;8161;-33.910;151.156;2023-03-31T01:08:56;25.10;99.90
16114;DHT22;8161;-33.910;151.156;2023-03-31T01:11:25;25.20;99.90
16114;DHT22;8161;-33.910;151.156;2023-03-31T01:13:54;25.20;99.90
16114;DHT22;8161;-33.910;151.156;2023-03-31T01:16:23;25.40;99.20
16114;DHT22;8161;-33.910;151.156;2023-03-31T01:18:50;25.50;99.80
16114;DHT22;8161;-33.910;151.156;2023-03-31T01:24:22;25.70;98.80
16114;DHT22;8161;-33.910;151.156;2023-03-31T01:41:14;25.80;97.40
16114;DHT22;8161;-33.910;151.156;2023-03-31T01:44:04;25.60;96.80
16114;DHT22;8161;-33.910;151.156;2023-03-31T01:46:52;25.60;98.20
16114;DHT22;8161;-33.910;151.156;2023-03-31T01:49:38;25.90;97.10
16114;DHT22;8161;-33.910;151.156;2023-03-31T01:52:17;25.80;96.40
16114;DHT22;8161;-33.910;151.156;2023-03-31T01:54:52;25.70;96.80
16114;DHT22;8161;-33.910;151.156;2023-03-31T01:57:33;25.60;97.00
16114;DHT22;8161;-33.910;151.156;2023-03-31T02:00:31;25.70;96.00
16114;DHT22;8161;-33.910;151.156;2023-03-31T02:05:52;25.80;97.90
16114;DHT22;8161;-33.910;151.156;2023-03-31T02:08:30;26.00;97.20
16114;DHT22;8161;-33.910;151.156;2023-03-31T02:11:00;26.30;95.50
16114;DHT22;8161;-33.910;151.156;2023-03-31T02:13:28;26.40;94.80
16114;DHT22;8161;-33.910;151.156;2023-03-31T02:16:01;26.40;93.70
16114;DHT22;8161;-33.910;151.156;2023-03-31T02:18:32;26.20;92.80
16114;DHT22;8161;-33.910;151.156;2023-03-31T02:21:05;26.20;92.00
16114;DHT22;8161;-33.910;151.156;2023-03-31T02:23:35;26.30;92.50
16114;DHT22;8161;-33.910;151.156;2023-03-31T02:26:13;26.30;92.00
16114;DHT22;8161;-33.910;151.156;2023-03-31T02:28:42;26.30;92.10
16114;DHT22;8161;-33.910;151.156;2023-03-31T02:33:36;26.30;92.40
16114;DHT22;8161;-33.910;151.156;2023-03-31T02:36:04;26.40;91.90
16114;DHT22;8161;-33.910;151.156;2023-03-31T02:38:36;26.20;93.00
16114;DHT22;8161;-33.910;151.156;2023-03-31T02:41:06;26.30;93.70
16114;DHT22;8161;-33.910;151.156;2023-03-31T02:43:33;26.50;93.40
16114;DHT22;8161;-33.910;151.156;2023-03-31T02:46:01;26.60;94.20
16114;DHT22;8161;-33.910;151.156;2023-03-31T02:48:34;26.80;93.40
16114;DHT22;8161;-33.910;151.156;2023-03-31T03:05:09;26.80;97.00
16114;DHT22;8161;-33.910;151.156;2023-03-31T03:13:13;27.30;95.40
16114;DHT22;8161;-33.910;151.156;2023-03-31T03:18:33;27.30;95.40
16114;DHT22;8161;-33.910;151.156;2023-03-31T03:21:00;27.40;95.90
16114;DHT22;8161;-33.910;151.156;2023-03-31T03:23:27;27.70;95.10
16114;DHT22;8161;-33.910;151.156;2023-03-31T03:25:55;27.70;94.90
16114;DHT22;8161;-33.910;151.156;2023-03-31T03:28:23;27.80;95.00
16114;DHT22;8161;-33.910;151.156;2023-03-31T03:30:50;28.00;94.90
16114;DHT22;8161;-33.910;151.156;2023-03-31T03:33:17;28.00;93.70
16114;DHT22;8161;-33.910;151.156;2023-03-31T03:35:44;28.10;94.20
16114;DHT22;8161;-33.910;151.156;2023-03-31T03:38:11;28.30;94.00
16114;DHT22;8161;-33.910;151.156;2023-03-31T03:40:38;28.40;93.70
16114;DHT22;8161;-33.910;151.156;2023-03-31T03:43:06;28.40;93.70
16114;DHT22;8161;-33.910;151.156;2023-03-31T03:45:33;28.40;93.40
16114;DHT22;8161;-33.910;151.156;2023-03-31T03:48:03;28.50;93.90
16114;DHT22;8161;-33.910;151.156;2023-03-31T03:50:30;28.30;92.30
16114;DHT22;8161;-33.910;151.156;2023-03-31T03:53:01;28.00;92.20
16114;DHT22;8161;-33.910;151.156;2023-03-31T03:55:28;27.80;92.30
16114;DHT22;8161;-33.910;151.156;2023-03-31T03:57:55;27.80;93.10
16114;DHT22;8161;-33.910;151.156;2023-03-31T04:00:23;28.00;93.00
16114;DHT22;8161;-33.910;151.156;2023-03-31T04:02:50;28.10;92.30
16114;DHT22;8161;-33.910;151.156;2023-03-31T04:05:17;28.20;93.10
16114;DHT22;8161;-33.910;151.156;2023-03-31T04:07:44;28.20;93.20
16114;DHT22;8161;-33.910;151.156;2023-03-31T04:10:11;28.30;93.30
16114;DHT22;8161;-33.910;151.156;2023-03-31T04:12:39;28.40;93.00
16114;DHT22;8161;-33.910;151.156;2023-03-31T04:15:07;27.70;92.80
16114;DHT22;8161;-33.910;151.156;2023-03-31T04:17:34;28.50;93.30
16114;DHT22;8161;-33.910;151.156;2023-03-31T04:20:05;28.50;93.20
16114;DHT22;8161;-33.910;151.156;2023-03-31T04:22:35;28.50;93.00
16114;DHT22;8161;-33.910;151.156;2023-03-31T04:25:10;28.70;93.50
16114;DHT22;8161;-33.910;151.156;2023-03-31T04:27:46;28.80;93.00
16114;DHT22;8161;-33.910;151.156;2023-03-31T04:30:25;28.90;93.00
16114;DHT22;8161;-33.910;151.156;2023-03-31T04:33:05;29.00;92.70
16114;DHT22;8161;-33.910;151.156;2023-03-31T04:35:32;29.00;91.90
16114;DHT22;8161;-33.910;151.156;2023-03-31T04:38:24;28.00;92.20
16114;DHT22;8161;-33.910;151.156;2023-03-31T04:40:59;28.90;93.00
16114;DHT22;8161;-33.910;151.156;2023-03-31T04:43:26;28.90;92.20
16114;DHT22;8161;-33.910;151.156;2023-03-31T04:45:54;28.80;92.40
16114;DHT22;8161;-33.910;151.156;2023-03-31T04:48:21;28.80;92.10
16114;DHT22;8161;-33.910;151.156;2023-03-31T04:50:48;28.70;92.40
16114;DHT22;8161;-33.910;151.156;2023-03-31T04:53:15;28.60;92.50
16114;DHT22;8161;-33.910;151.156;2023-03-31T04:55:42;28.20;92.00
16114;DHT22;8161;-33.910;151.156;2023-03-31T04:58:10;28.10;92.60
16114;DHT22;8161;-33.910;151.156;2023-03-31T05:00:37;28.20;93.00
16114;DHT22;8161;-33.910;151.156;2023-03-31T05:03:04;28.40;92.50
16114;DHT22;8161;-33.910;151.156;2023-03-31T05:05:32;28.60;92.50
16114;DHT22;8161;-33.910;151.156;2023-03-31T05:07:59;28.80;92.30
16114;DHT22;8161;-33.910;151.156;2023-03-31T05:10:27;28.90;92.10
16114;DHT22;8161;-33.910;151.156;2023-03-31T05:12:54;28.90;92.10
16114;DHT22;8161;-33.910;151.156;2023-03-31T05:15:21;28.70;91.70
16114;DHT22;8161;-33.910;151.156;2023-03-31T05:17:50;28.50;91.70
16114;DHT22;8161;-33.910;151.156;2023-03-31T05:20:19;28.30;91.50
16114;DHT22;8161;-33.910;151.156;2023-03-31T05:22:46;28.00;92.00
16114;DHT22;8161;-33.910;151.156;2023-03-31T05:25:14;28.20;92.10
16114;DHT22;8161;-33.910;151.156;2023-03-31T05:27:45;28.30;91.90
16114;DHT22;8161;-33.910;151.156;2023-03-31T05:30:13;28.20;91.70
16114;DHT22;8161;-33.910;151.156;2023-03-31T05:32:41;28.10;91.90
16114;DHT22;8161;-33.910;151.156;2023-03-31T05:35:09;28.00;92.40
16114;DHT22;8161;-33.910;151.156;2023-03-31T05:37:36;28.20;92.70
16114;DHT22;8161;-33.910;151.156;2023-03-31T05:40:04;29.70;92.40
16114;DHT22;8161;-33.910;151.156;2023-03-31T05:42:31;28.30;92.50
16114;DHT22;8161;-33.910;151.156;2023-03-31T05:44:58;28.40;92.20
16114;DHT22;8161;-33.910;151.156;2023-03-31T05:47:26;28.40;91.50
16114;DHT22;8161;-33.910;151.156;2023-03-31T05:49:53;25.90;90.80
16114;DHT22;8161;-33.910;151.156;2023-03-31T05:52:20;27.90;91.80
16114;DHT22;8161;-33.910;151.156;2023-03-31T05:54:47;27.50;92.50
16114;DHT22;8161;-33.910;151.156;2023-03-31T05:57:15;27.30;92.90
16114;DHT22;8161;-33.910;151.156;2023-03-31T05:59:42;27.40;93.00
16114;DHT22;8161;-33.910;151.156;2023-03-31T06:02:14;27.70;93.70
16114;DHT22;8161;-33.910;151.156;2023-03-31T06:04:42;27.80;93.20
16114;DHT22;8161;-33.910;151.156;2023-03-31T06:07:09;27.70;93.10
16114;DHT22;8161;-33.910;151.156;2023-03-31T06:09:36;27.50;92.90
16114;DHT22;8161;-33.910;151.156;2023-03-31T06:12:04;27.10;93.50
16114;DHT22;8161;-33.910;151.156;2023-03-31T06:14:31;27.00;93.40
16114;DHT22;8161;-33.910;151.156;2023-03-31T06:16:59;26.60;93.10
16114;DHT22;8161;-33.910;151.156;2023-03-31T06:19:26;26.50;93.40
16114;DHT22;8161;-33.910;151.156;2023-03-31T06:21:53;26.40;94.00
16114;DHT22;8161;-33.910;151.156;2023-03-31T06:24:21;26.10;93.90
16114;DHT22;8161;-33.910;151.156;2023-03-31T06:26:48;25.90;94.30
16114;DHT22;8161;-33.910;151.156;2023-03-31T06:29:16;25.80;95.10
16114;DHT22;8161;-33.910;151.156;2023-03-31T06:31:43;25.80;95.70
16114;DHT22;8161;-33.910;151.156;2023-03-31T06:34:10;26.10;98.70
16114;DHT22;8161;-33.910;151.156;2023-03-31T06:36:37;26.40;99.50
16114;DHT22;8161;-33.910;151.156;2023-03-31T06:39:04;26.70;99.00
16114;DHT22;8161;-33.910;151.156;2023-03-31T06:41:32;26.90;98.40
16114;DHT22;8161;-33.910;151.156;2023-03-31T06:43:59;26.80;97.90
16114;DHT22;8161;-33.910;151.156;2023-03-31T06:46:26;26.60;97.30
16114;DHT22;8161;-33.910;151.156;2023-03-31T06:48:53;26.40;97.50
16114;DHT22;8161;-33.910;151.156;2023-03-31T06:51:21;26.20;98.80
16114;DHT22;8161;-33.910;151.156;2023-03-31T06:53:48;26.10;97.90
16114;DHT22;8161;-33.910;151.156;2023-03-31T06:56:15;26.10;97.80
16114;DHT22;8161;-33.910;151.156;2023-03-31T06:58:42;26.00;97.60
16114;DHT22;8161;-33.910;151.156;2023-03-31T07:01:10;25.90;98.10
16114;DHT22;8161;-33.910;151.156;2023-03-31T07:03:37;25.80;98.40
16114;DHT22;8161;-33.910;151.156;2023-03-31T07:06:04;25.60;98.10
16114;DHT22;8161;-33.910;151.156;2023-03-31T07:08:32;25.40;98.20
16114;DHT22;8161;-33.910;151.156;2023-03-31T07:11:00;25.30;98.80
16114;DHT22;8161;-33.910;151.156;2023-03-31T07:13:28;25.00;99.70
16114;DHT22;8161;-33.910;151.156;2023-03-31T07:15:56;25.00;99.80
16114;DHT22;8161;-33.910;151.156;2023-03-31T07:18:23;24.90;99.90
16114;DHT22;8161;-33.910;151.156;2023-03-31T07:20:57;24.80;99.90
16114;DHT22;8161;-33.910;151.156;2023-03-31T07:23:25;24.70;99.90
16114;DHT22;8161;-33.910;151.156;2023-03-31T07:25:53;24.70;99.90
16114;DHT22;8161;-33.910;151.156;2023-03-31T07:28:20;24.50;99.90
16114;DHT22;8161;-33.910;151.156;2023-03-31T07:30:47;24.50;99.90
16114;DHT22;8161;-33.910;151.156;2023-03-31T07:33:14;24.50;99.90
16114;DHT22;8161;-33.910;151.156;2023-03-31T07:35:42;24.50;99.90
16114;DHT22;8161;-33.910;151.156;2023-03-31T07:38:10;24.50;99.90
16114;DHT22;8161;-33.910;151.156;2023-03-31T07:40:38;24.40;99.90
16114;DHT22;8161;-33.910;151.156;2023-03-31T07:43:07;24.30;99.90
16114;DHT22;8161;-33.910;151.156;2023-03-31T07:45:34;24.30;99.90
16114;DHT22;8161;-33.910;151.156;2023-03-31T07:48:02;24.20;99.90
16114;DHT22;8161;-33.910;151.156;2023-03-31T07:50:29;24.20;99.90
16114;DHT22;8161;-33.910;151.156;2023-03-31T07:52:56;24.20;99.90
16114;DHT22;8161;-33.910;151.156;2023-03-31T07:55:23;24.10;99.90
16114;DHT22;8161;-33.910;151.156;2023-03-31T07:57:52;24.10;99.90
16114;DHT22;8161;-33.910;151.156;2023-03-31T08:00:19;24.10;99.90
16114;DHT22;8161;-33.910;151.156;2023-03-31T08:02:50;24.00;99.90
16114;DHT22;8161;-33.910;151.156;2023-03-31T08:05:19;24.00;99.90
16114;DHT22;8161;-33.910;151.156;2023-03-31T08:07:48;23.80;99.90
16114;DHT22;8161;-33.910;151.156;2023-03-31T08:10:20;23.80;99.90
16114;DHT22;8161;-33.910;151.156;2023-03-31T08:12:48;23.60;99.90
16114;DHT22;8161;-33.910;151.156;2023-03-31T08:15:15;23.50;99.90
16114;DHT22;8161;-33.910;151.156;2023-03-31T08:17:43;23.50;99.90
16114;DHT22;8161;-33.910;151.156;2023-03-31T08:20:10;23.30;99.90
16114;DHT22;8161;-33.910;151.156;2023-03-31T08:22:38;23.30;99.90
16114;DHT22;8161;-33.910;151.156;2023-03-31T08:25:07;23.40;99.90
16114;DHT22;8161;-33.910;151.156;2023-03-31T08:27:36;23.40;99.90
16114;DHT22;8161;-33.910;151.156;2023-03-31T08:30:05;23.40;99.90
16114;DHT22;8161;-33.910;151.156;2023-03-31T08:32:33;23.50;99.90
16114;DHT22;8161;-33.910;151.156;2023-03-31T08:35:01;23.50;99.90
16114;DHT22;8161;-33.910;151.156;2023-03-31T08:37:28;23.40;99.90
16114;DHT22;8161;-33.910;151.156;2023-03-31T08:39:56;23.50;99.90
16114;DHT22;8161;-33.910;151.156;2023-03-31T08:42:40;23.20;99.90
16114;DHT22;8161;-33.910;151.156;2023-03-31T08:45:32;23.20;99.90
16114;DHT22;8161;-33.910;151.156;2023-03-31T08:51:02;23.20;99.90
16114;DHT22;8161;-33.910;151.156;2023-03-31T08:53:56;23.20;99.90
16114;DHT22;8161;-33.910;151.156;2023-03-31T08:56:32;23.10;99.90
16114;DHT22;8161;-33.910;151.156;2023-03-31T08:59:00;23.10;99.90
16114;DHT22;8161;-33.910;151.156;2023-03-31T09:02:28;23.20;99.90
16114;DHT22;8161;-33.910;151.156;2023-03-31T09:18:35;23.00;99.90
16114;DHT22;8161;-33.910;151.156;2023-03-31T09:21:27;23.00;99.90
16114;DHT22;8161;-33.910;151.156;2023-03-31T09:24:26;23.00;99.90
16114;DHT22;8161;-33.910;151.156;2023-03-31T09:26:59;22.90;99.90
16114;DHT22;8161;-33.910;151.156;2023-03-31T09:29:48;23.00;99.90
16114;DHT22;8161;-33.910;151.156;2023-03-31T09:32:19;22.90;99.90
16114;DHT22;8161;-33.910;151.156;2023-03-31T09:34:55;22.80;99.90
16114;DHT22;8161;-33.910;151.156;2023-03-31T09:37:28;22.80;99.90
16114;DHT22;8161;-33.910;151.156;2023-03-31T09:39:59;22.80;99.90
16114;DHT22;8161;-33.910;151.156;2023-03-31T09:42:27;22.80;99.90
16114;DHT22;8161;-33.910;151.156;2023-03-31T09:44:54;22.80;99.90
16114;DHT22;8161;-33.910;151.156;2023-03-31T09:47:39;22.70;99.90
16114;DHT22;8161;-33.910;151.156;2023-03-31T09:50:09;22.70;99.90
16114;DHT22;8161;-33.910;151.156;2023-03-31T09:52:40;22.70;99.90
16114;DHT22;8161;-33.910;151.156;2023-03-31T09:58:06;22.70;99.90
16114;DHT22;8161;-33.910;151.156;2023-03-31T10:00:34;22.50;99.90
16114;DHT22;8161;-33.910;151.156;2023-03-31T10:03:03;22.70;99.90
16114;DHT22;8161;-33.910;151.156;2023-03-31T10:05:39;22.70;99.90
16114;DHT22;8161;-33.910;151.156;2023-03-31T10:16:32;22.40;99.90
16114;DHT22;8161;-33.910;151.156;2023-03-31T10:19:23;22.40;99.90
16114;DHT22;8161;-33.910;151.156;2023-03-31T10:22:08;22.40;99.90
16114;DHT22;8161;-33.910;151.156;2023-03-31T10:24:42;22.40;99.90
16114;DHT22;8161;-33.910;151.156;2023-03-31T10:27:22;22.40;99.90
16114;DHT22;8161;-33.910;151.156;2023-03-31T10:30:02;22.40;99.90
16114;DHT22;8161;-33.910;151.156;2023-03-31T10:32:37;22.40;99.90
16114;DHT22;8161;-33.910;151.156;2023-03-31T10:37:48;22.50;99.90
16114;DHT22;8161;-33.910;151.156;2023-03-31T10:40:25;22.50;99.90
16114;DHT22;8161;-33.910;151.156;2023-03-31T10:43:48;22.50;99.90
16114;DHT22;8161;-33.910;151.156;2023-03-31T10:45:54;22.40;99.90
16114;DHT22;8161;-33.910;151.156;2023-03-31T10:48:36;22.40;99.90
16114;DHT22;8161;-33.910;151.156;2023-03-31T10:51:19;22.40;99.90
16114;DHT22;8161;-33.910;151.156;2023-03-31T10:53:47;22.40;99.90
16114;DHT22;8161;-33.910;151.156;2023-03-31T10:56:33;22.50;99.90
16114;DHT22;8161;-33.910;151.156;2023-03-31T11:23:40;22.20;99.90
16114;DHT22;8161;-33.910;151.156;2023-03-31T11:32:09;22.10;99.90
16114;DHT22;8161;-33.910;151.156;2023-03-31T11:40:26;22.00;99.90
16114;DHT22;8161;-33.910;151.156;2023-03-31T11:45:49;22.00;99.90
16114;DHT22;8161;-33.910;151.156;2023-03-31T11:51:06;21.80;99.90
16114;DHT22;8161;-33.910;151.156;2023-03-31T11:53:37;21.80;99.90
16114;DHT22;8161;-33.910;151.156;2023-03-31T11:56:07;21.80;99.90
16114;DHT22;8161;-33.910;151.156;2023-03-31T11:58:52;21.70;99.90
16114;DHT22;8161;-33.910;151.156;2023-03-31T12:07:25;21.70;99.90
16114;DHT22;8161;-33.910;151.156;2023-03-31T12:10:02;21.70;99.90
16114;DHT22;8161;-33.910;151.156;2023-03-31T12:15:30;21.50;99.90
16114;DHT22;8161;-33.910;151.156;2023-03-31T12:18:24;21.30;99.90
16114;DHT22;8161;-33.910;151.156;2023-03-31T12:20:56;21.40;99.90
16114;DHT22;8161;-33.910;151.156;2023-03-31T12:23:30;21.30;99.90
16114;DHT22;8161;-33.910;151.156;2023-03-31T12:28:45;21.20;99.90
16114;DHT22;8161;-33.910;151.156;2023-03-31T12:31:19;21.30;99.90
16114;DHT22;8161;-33.910;151.156;2023-03-31T12:33:54;21.40;99.90
16114;DHT22;8161;-33.910;151.156;2023-03-31T12:55:34;21.10;99.90
16114;DHT22;8161;-33.910;151.156;2023-03-31T13:01:17;21.10;99.90
16114;DHT22;8161;-33.910;151.156;2023-03-31T13:08:56;20.90;99.90
16114;DHT22;8161;-33.910;151.156;2023-03-31T13:17:11;20.90;99.90
16114;DHT22;8161;-33.910;151.156;2023-03-31T13:19:40;21.00;99.90
16114;DHT22;8161;-33.910;151.156;2023-03-31T13:22:36;20.90;99.90
16114;DHT22;8161;-33.910;151.156;2023-03-31T13:27:52;20.70;99.90
16114;DHT22;8161;-33.910;151.156;2023-03-31T13:33:22;20.60;99.90
16114;DHT22;8161;-33.910;151.156;2023-03-31T13:46:39;20.60;99.90
16114;DHT22;8161;-33.910;151.156;2023-03-31T13:52:03;20.50;99.90
16114;DHT22;8161;-33.910;151.156;2023-03-31T14:05:36;20.40;99.90
16114;DHT22;8161;-33.910;151.156;2023-03-31T14:08:23;20.40;99.90
16114;DHT22;8161;-33.910;151.156;2023-03-31T14:10:54;20.30;99.90
16114;DHT22;8161;-33.910;151.156;2023-03-31T14:13:42;20.30;99.90
16114;DHT22;8161;-33.910;151.156;2023-03-31T14:16:10;20.40;99.90
16114;DHT22;8161;-33.910;151.156;2023-03-31T14:18:43;20.30;99.90
16114;DHT22;8161;-33.910;151.156;2023-03-31T14:21:16;20.30;99.90
16114;DHT22;8161;-33.910;151.156;2023-03-31T14:35:21;20.20;99.90
16114;DHT22;8161;-33.910;151.156;2023-03-31T14:37:39;20.20;99.90
16114;DHT22;8161;-33.910;151.156;2023-03-31T14:40:13;20.20;99.90
16114;DHT22;8161;-33.910;151.156;2023-03-31T14:42:42;20.20;99.90
16114;DHT22;8161;-33.910;151.156;2023-03-31T14:45:21;20.00;99.90
16114;DHT22;8161;-33.910;151.156;2023-03-31T14:47:57;20.00;99.90
16114;DHT22;8161;-33.910;151.156;2023-03-31T14:50:32;20.00;99.90
16114;DHT22;8161;-33.910;151.156;2023-03-31T14:52:59;20.10;99.90
16114;DHT22;8161;-33.910;151.156;2023-03-31T14:55:32;20.10;99.90
16114;DHT22;8161;-33.910;151.156;2023-03-31T14:58:01;20.00;99.90
16114;DHT22;8161;-33.910;151.156;2023-03-31T15:00:31;20.10;99.90
16114;DHT22;8161;-33.910;151.156;2023-03-31T15:03:00;20.00;99.90
16114;DHT22;8161;-33.910;151.156;2023-03-31T15:05:34;20.00;99.90
16114;DHT22;8161;-33.910;151.156;2023-03-31T15:08:10;20.00;99.90
16114;DHT22;8161;-33.910;151.156;2023-03-31T15:10:42;19.90;99.90
16114;DHT22;8161;-33.910;151.156;2023-03-31T15:13:33;19.90;99.90
16114;DHT22;8161;-33.910;151.156;2023-03-31T15:16:57;19.80;99.90
16114;DHT22;8161;-33.910;151.156;2023-03-31T15:21:43;19.80;99.90
16114;DHT22;8161;-33.910;151.156;2023-03-31T15:24:19;19.80;99.90
16114;DHT22;8161;-33.910;151.156;2023-03-31T15:32:20;19.80;99.90
16114;DHT22;8161;-33.910;151.156;2023-03-31T15:34:50;19.70;99.90
16114;DHT22;8161;-33.910;151.156;2023-03-31T15:37:26;19.60;99.90
16114;DHT22;8161;-33.910;151.156;2023-03-31T15:39:59;19.60;99.90
16114;DHT22;8161;-33.910;151.156;2023-03-31T15:42:28;19.70;99.90
16114;DHT22;8161;-33.910;151.156;2023-03-31T15:47:51;19.50;99.90
16114;DHT22;8161;-33.910;151.156;2023-03-31T15:50:23;19.40;99.90
16114;DHT22;8161;-33.910;151.156;2023-03-31T15:52:57;19.40;99.90
16114;DHT22;8161;-33.910;151.156;2023-03-31T15:55:31;19.40;99.90
16114;DHT22;8161;-33.910;151.156;2023-03-31T15:58:05;19.40;99.90
16114;DHT22;8161;-33.910;151.156;2023-03-31T16:00:43;19.30;99.90
16114;DHT22;8161;-33.910;151.156;2023-03-31T16:03:15;19.30;99.90
16114;DHT22;8161;-33.910;151.156;2023-03-31T16:11:26;19.30;99.90
16114;DHT22;8161;-33.910;151.156;2023-03-31T16:13:59;19.30;99.90
16114;DHT22;8161;-33.910;151.156;2023-03-31T16:16:29;19.20;99.90
16114;DHT22;8161;-33.910;151.156;2023-03-31T16:19:15;19.30;99.90
16114;DHT22;8161;-33.910;151.156;2023-03-31T16:21:45;19.30;99.90
16114;DHT22;8161;-33.910;151.156;2023-03-31T16:24:16;19.40;99.90
16114;DHT22;8161;-33.910;151.156;2023-03-31T16:26:43;19.30;99.90
16114;DHT22;8161;-33.910;151.156;2023-03-31T16:29:22;19.40;99.90
16114;DHT22;8161;-33.910;151.156;2023-03-31T16:31:49;19.30;99.90
16114;DHT22;8161;-33.910;151.156;2023-03-31T16:34:24;19.30;99.90
16114;DHT22;8161;-33.910;151.156;2023-03-31T16:36:56;19.40;99.90
16114;DHT22;8161;-33.910;151.156;2023-03-31T16:39:23;19.30;99.90
16114;DHT22;8161;-33.910;151.156;2023-03-31T16:41:51;19.30;99.90
16114;DHT22;8161;-33.910;151.156;2023-03-31T16:44:18;19.30;99.90
16114;DHT22;8161;-33.910;151.156;2023-03-31T16:46:45;19.30;99.90
16114;DHT22;8161;-33.910;151.156;2023-03-31T16:49:12;19.20;99.90
16114;DHT22;8161;-33.910;151.156;2023-03-31T16:51:40;19.20;99.90
16114;DHT22;8161;-33.910;151.156;2023-03-31T16:54:07;19.20;99.90
16114;DHT22;8161;-33.910;151.156;2023-03-31T16:56:34;19.20;99.90
16114;DHT22;8161;-33.910;151.156;2023-03-31T16:59:01;19.20;99.90
16114;DHT22;8161;-33.910;151.156;2023-03-31T17:01:29;19.10;99.90
16114;DHT22;8161;-33.910;151.156;2023-03-31T17:03:56;19.10;99.90
16114;DHT22;8161;-33.910;151.156;2023-03-31T17:06:23;19.00;99.90
16114;DHT22;8161;-33.910;151.156;2023-03-31T17:08:50;19.00;99.90
16114;DHT22;8161;-33.910;151.156;2023-03-31T17:11:18;18.90;99.90
16114;DHT22;8161;-33.910;151.156;2023-03-31T17:13:45;18.90;99.90
16114;DHT22;8161;-33.910;151.156;2023-03-31T17:16:17;18.80;99.90
16114;DHT22;8161;-33.910;151.156;2023-03-31T17:18:44;18.70;99.90
16114;DHT22;8161;-33.910;151.156;2023-03-31T17:21:13;18.60;99.90
16114;DHT22;8161;-33.910;151.156;2023-03-31T17:23:42;18.70;99.90
16114;DHT22;8161;-33.910;151.156;2023-03-31T17:26:10;18.70;99.90
16114;DHT22;8161;-33.910;151.156;2023-03-31T17:28:41;18.50;99.90
16114;DHT22;8161;-33.910;151.156;2023-03-31T17:31:17;18.60;99.90
16114;DHT22;8161;-33.910;151.156;2023-03-31T17:33:44;18.60;99.90
16114;DHT22;8161;-33.910;151.156;2023-03-31T17:36:12;18.50;99.90
16114;DHT22;8161;-33.910;151.156;2023-03-31T17:38:41;18.60;99.90
16114;DHT22;8161;-33.910;151.156;2023-03-31T17:41:11;18.50;99.90
16114;DHT22;8161;-33.910;151.156;2023-03-31T17:43:38;18.50;99.90
16114;DHT22;8161;-33.910;151.156;2023-03-31T17:46:07;18.50;99.90
16114;DHT22;8161;-33.910;151.156;2023-03-31T17:48:38;15.10;99.90
16114;DHT22;8161;-33.910;151.156;2023-03-31T17:51:14;18.50;99.90
16114;DHT22;8161;-33.910;151.156;2023-03-31T17:53:45;18.40;99.90
16114;DHT22;8161;-33.910;151.156;2023-03-31T17:56:14;18.40;99.90
16114;DHT22;8161;-33.910;151.156;2023-03-31T17:58:42;18.50;99.90
16114;DHT22;8161;-33.910;151.156;2023-03-31T18:01:10;18.30;99.90
16114;DHT22;8161;-33.910;151.156;2023-03-31T18:03:40;18.30;99.90
16114;DHT22;8161;-33.910;151.156;2023-03-31T18:06:10;18.30;99.90
16114;DHT22;8161;-33.910;151.156;2023-03-31T18:08:39;18.30;99.90
16114;DHT22;8161;-33.910;151.156;2023-03-31T18:11:08;18.30;99.90
16114;DHT22;8161;-33.910;151.156;2023-03-31T18:13:35;18.30;99.90
16114;DHT22;8161;-33.910;151.156;2023-03-31T18:16:05;18.30;99.90
16114;DHT22;8161;-33.910;151.156;2023-03-31T18:18:38;18.30;99.90
16114;DHT22;8161;-33.910;151.156;2023-03-31T18:21:07;18.20;99.90
16114;DHT22;8161;-33.910;151.156;2023-03-31T18:23:35;18.20;99.90
16114;DHT22;8161;-33.910;151.156;2023-03-31T18:26:07;18.20;99.90
16114;DHT22;8161;-33.910;151.156;2023-03-31T18:28:35;18.10;99.90
16114;DHT22;8161;-33.910;151.156;2023-03-31T18:31:04;18.10;99.90
16114;DHT22;8161;-33.910;151.156;2023-03-31T18:33:32;18.10;99.90
16114;DHT22;8161;-33.910;151.156;2023-03-31T18:35:59;18.10;99.90
16114;DHT22;8161;-33.910;151.156;2023-03-31T18:38:27;18.10;99.90
16114;DHT22;8161;-33.910;151.156;2023-03-31T18:40:54;18.00;99.90
16114;DHT22;8161;-33.910;151.156;2023-03-31T18:43:23;17.90;99.90
16114;DHT22;8161;-33.910;151.156;2023-03-31T18:45:53;17.90;99.90
16114;DHT22;8161;-33.910;151.156;2023-03-31T18:48:21;17.90;99.90
16114;DHT22;8161;-33.910;151.156;2023-03-31T18:50:52;21.90;99.90
16114;DHT22;8161;-33.910;151.156;2023-03-31T18:53:21;17.90;99.90
16114;DHT22;8161;-33.910;151.156;2023-03-31T18:55:51;17.90;99.90
16114;DHT22;8161;-33.910;151.156;2023-03-31T18:58:18;17.90;99.90
16114;DHT22;8161;-33.910;151.156;2023-03-31T19:00:46;17.80;99.90
16114;DHT22;8161;-33.910;151.156;2023-03-31T19:03:13;17.80;99.90
16114;DHT22;8161;-33.910;151.156;2023-03-31T19:05:40;17.70;99.90
16114;DHT22;8161;-33.910;151.156;2023-03-31T19:08:08;17.70;99.90
16114;DHT22;8161;-33.910;151.156;2023-03-31T19:10:35;17.80;99.90